Time;durP1;ratioP1;P1;durP2;ratioP2;P2;SDS_P1;SDS_P2;PMS_P1;PMS_P2;Temp;Humidity;BMP_temperature;BMP_pressure;BME280_temperature;BME280_humidity;BME280_pressure;Samples;Min_cycle;Max_cycle;Signal;HPM_P1;HPM_P2
2022/11/07 00:02:15;;;;;;;11.65;7.22;;;;;;;8.38;85.85;100495.72;5027865;28;20416;-71
2022/11/07 00:04:42;;;;;;;13.10;7.40;;;;;;;8.35;85.52;100501.09;5028729;28;20056;-71
2022/11/07 00:07:08;;;;;;;18.73;7.78;;;;;;;8.72;85.02;100501.03;5019358;28;20410;-71
2022/11/07 00:09:35;;;;;;;10.27;6.53;;;;;;;8.74;84.11;100501.81;5027098;28;20044;-71
2022/11/07 00:12:04;;;;;;;10.80;7.30;;;;;;;9.23;81.34;100491.59;5028344;28;20041;-71
2022/11/07 00:14:30;;;;;;;12.38;7.40;;;;;;;9.17;81.90;100494.47;5019659;28;20052;-71
2022/11/07 00:16:57;;;;;;;10.57;7.30;;;;;;;9.04;81.83;100501.25;5026554;28;20055;-71
2022/11/07 00:19:23;;;;;;;13.68;7.55;;;;;;;8.66;83.73;100511.78;5028858;28;20068;-71
2022/11/07 00:21:50;;;;;;;12.63;7.25;;;;;;;8.91;83.04;100505.38;5018999;28;20060;-71
2022/11/07 00:24:17;;;;;;;11.80;6.57;;;;;;;8.93;82.58;100507.00;5027199;28;20500;-71
2022/11/07 00:26:44;;;;;;;13.18;7.68;;;;;;;8.67;84.15;100515.25;5028588;28;20056;-71
2022/11/07 00:29:15;;;;;;;10.85;7.22;;;;;;;8.73;82.97;100504.50;5018406;28;20080;-71
2022/11/07 00:31:41;;;;;;;11.23;7.00;;;;;;;9.08;82.03;100500.19;5027128;28;20272;-71
2022/11/07 00:34:08;;;;;;;11.85;7.10;;;;;;;9.22;81.12;100503.81;5028151;28;20045;-71
2022/11/07 00:36:34;;;;;;;10.98;7.10;;;;;;;9.07;81.14;100508.94;5017440;28;20520;-71
2022/11/07 00:39:01;;;;;;;11.43;7.60;;;;;;;9.22;80.45;100510.81;5026095;28;20064;-71
2022/11/07 00:41:28;;;;;;;10.57;6.25;;;;;;;8.90;81.88;100522.00;5027306;28;20044;-71
2022/11/07 00:43:54;;;;;;;11.50;6.82;;;;;;;9.08;81.72;100508.03;5017751;28;20055;-71
2022/11/07 00:46:23;;;;;;;14.85;6.70;;;;;;;9.14;81.03;100505.09;5026460;28;20711;-71
2022/11/07 00:48:49;;;;;;;13.02;6.97;;;;;;;8.78;83.08;100518.22;5027172;28;20060;-71
2022/11/07 00:51:18;;;;;;;12.95;6.97;;;;;;;9.27;80.49;100524.53;5017391;28;20049;-71
2022/11/07 00:53:45;;;;;;;10.57;6.90;;;;;;;9.67;78.55;100541.69;5026880;28;20036;-71
2022/11/07 00:56:14;;;;;;;10.43;6.90;;;;;;;9.28;79.67;100540.13;5027467;28;20049;-71
2022/11/07 00:58:42;;;;;;;12.20;7.10;;;;;;;8.60;82.83;100543.47;5016831;28;20048;-71
2022/11/07 01:01:11;;;;;;;10.77;6.97;;;;;;;8.62;83.18;100545.97;5026448;28;20041;-71
2022/11/07 01:06:23;;;;;;;10.32;6.43;;;;;;;8.15;85.61;100548.13;5014787;28;20556;-71
2022/11/07 01:08:50;;;;;;;10.85;4.88;;;;;;;8.03;85.81;100549.50;5027126;28;20707;-71
2022/11/07 01:11:17;;;;;;;11.77;7.63;;;;;;;8.56;83.86;100541.91;5016980;28;20045;-71
2022/11/07 01:13:43;;;;;;;11.70;6.95;;;;;;;9.02;81.07;100542.31;5026137;28;20502;-71
2022/11/07 01:16:11;;;;;;;11.77;6.88;;;;;;;8.96;81.64;100548.69;5027444;28;20048;-71
2022/11/07 01:18:39;;;;;;;11.18;6.38;;;;;;;8.39;83.24;100554.88;5019596;28;20071;-71
2022/11/07 01:21:06;;;;;;;8.80;5.88;;;;;;;8.87;81.42;100548.31;5030601;28;20058;-71
2022/11/07 01:23:32;;;;;;;13.32;6.78;;;;;;;8.98;80.61;100543.41;5030176;28;20055;-71
2022/11/07 01:26:04;;;;;;;11.13;5.88;;;;;;;9.36;79.95;100537.13;5021517;28;20048;-71
2022/11/07 01:28:30;;;;;;;11.90;6.38;;;;;;;8.82;81.36;100539.81;5029937;28;20472;-71
2022/11/07 01:30:57;;;;;;;10.93;6.43;;;;;;;8.81;81.13;100533.75;5028927;28;20059;-71
2022/11/07 01:33:23;;;;;;;10.75;6.25;;;;;;;8.93;80.61;100533.16;5029657;28;20058;-71
2022/11/07 01:35:51;;;;;;;10.75;6.53;;;;;;;8.72;81.91;100535.00;5031091;28;20064;-71
2022/11/07 01:38:17;;;;;;;9.20;6.05;;;;;;;8.93;80.54;100530.56;5032168;28;20045;-71
2022/11/07 01:43:41;;;;;;;10.55;5.97;;;;;;;9.36;77.63;100534.50;5030841;28;20049;-71
2022/11/07 01:46:07;;;;;;;10.13;6.00;;;;;;;9.22;78.11;100537.81;5031001;28;20385;-71
2022/11/07 01:48:34;;;;;;;9.52;5.68;;;;;;;8.85;79.37;100539.66;5031000;28;20040;-71
2022/11/07 01:51:02;;;;;;;10.00;5.88;;;;;;;9.22;78.37;100537.81;5020369;28;20049;-71
2022/11/07 01:53:29;;;;;;;9.43;6.20;;;;;;;8.92;79.47;100535.84;5030223;28;20068;-71
2022/11/07 01:55:55;;;;;;;11.48;6.45;;;;;;;8.80;79.86;100526.81;5030260;28;20049;-70
2022/11/07 01:58:21;;;;;;;10.73;5.97;;;;;;;8.50;81.53;100534.31;5021524;28;20515;-70
2022/11/07 02:00:48;;;;;;;9.60;5.75;;;;;;;8.24;82.52;100532.88;5030583;28;20052;-70
2022/11/07 02:03:20;;;;;;;8.45;5.47;;;;;;;8.39;82.31;100530.53;5029401;28;20094;-70
2022/11/07 02:05:51;;;;;;;11.38;6.18;;;;;;;8.50;81.87;100533.50;5020383;28;20040;-70
2022/11/07 02:08:20;;;;;;;10.73;6.65;;;;;;;8.65;81.22;100538.00;5029933;28;20099;-70
2022/11/07 02:10:48;;;;;;;10.30;6.65;;;;;;;8.17;82.46;100535.81;5029866;28;20048;-70
2022/11/07 02:13:19;;;;;;;10.55;6.00;;;;;;;8.42;81.97;100539.09;5020283;28;20120;-70
2022/11/07 02:15:46;;;;;;;12.60;6.28;;;;;;;8.67;80.59;100541.41;5030537;28;20051;-70
2022/11/07 02:18:13;;;;;;;10.55;6.15;;;;;;;8.43;81.57;100545.97;5027547;28;20063;-70
2022/11/07 02:20:39;;;;;;;8.13;5.50;;;;;;;8.25;82.31;100550.25;5036379;28;20045;-70
2022/11/07 02:23:11;;;;;;;9.93;6.38;;;;;;;8.22;82.06;100541.72;5025429;28;20075;-70
2022/11/07 02:25:39;;;;;;;9.52;5.78;;;;;;;8.23;82.47;100543.41;5019545;28;20102;-70
2022/11/07 02:28:08;;;;;;;9.57;5.95;;;;;;;8.23;82.84;100549.50;5029905;28;20049;-70
2022/11/07 02:30:35;;;;;;;12.50;6.30;;;;;;;8.34;82.16;100545.56;5028304;28;20054;-70
2022/11/07 02:33:01;;;;;;;13.38;6.75;;;;;;;8.07;82.71;100556.28;5019874;28;20060;-70
2022/11/07 02:35:41;;;;;;;9.48;5.70;;;;;;;7.66;85.26;100542.44;5029749;28;20045;-70
2022/11/07 02:38:12;;;;;;;11.02;6.15;;;;;;;7.50;86.37;100543.97;5029453;28;20048;-70
2022/11/07 02:40:40;;;;;;;10.18;5.68;;;;;;;7.72;86.52;100544.75;5029331;28;20048;-71
2022/11/07 02:43:10;;;;;;;9.52;6.03;;;;;;;7.86;85.55;100552.03;5029823;28;20060;-71
2022/11/07 02:45:40;;;;;;;11.82;6.45;;;;;;;8.20;84.68;100544.38;5019711;28;20049;-72
2022/11/07 02:48:07;;;;;;;9.52;6.00;;;;;;;8.73;82.01;100552.41;5012631;28;20045;-71
2022/11/07 02:50:34;;;;;;;8.93;5.45;;;;;;;9.16;79.86;100545.94;5029482;28;20052;-71
2022/11/07 02:53:00;;;;;;;12.25;5.90;;;;;;;8.89;80.64;100555.16;5021277;28;20080;-72
2022/11/07 02:55:27;;;;;;;10.70;5.32;;;;;;;9.34;78.60;100554.69;5029691;28;20450;-72
2022/11/07 02:57:54;;;;;;;8.70;5.20;;;;;;;9.20;79.49;100557.16;5029789;28;20056;-72
2022/11/07 03:00:21;;;;;;;9.85;5.63;;;;;;;9.35;78.47;100551.13;5020188;28;20041;-72
2022/11/07 03:02:47;;;;;;;10.10;5.72;;;;;;;9.17;79.28;100557.25;5029817;28;20402;-72
2022/11/07 03:05:15;;;;;;;8.80;5.03;;;;;;;8.79;80.05;100562.56;5028955;28;20956;-72
2022/11/07 03:07:42;;;;;;;9.40;5.25;;;;;;;8.48;81.45;100571.91;5019328;28;20456;-72
2022/11/07 03:10:09;;;;;;;9.38;5.35;;;;;;;8.28;83.12;100564.94;5029764;28;20049;-71
2022/11/07 03:12:36;;;;;;;9.15;5.82;;;;;;;8.73;81.07;100570.69;5014500;28;20057;-71
2022/11/07 03:15:05;;;;;;;9.68;5.88;;;;;;;8.55;81.37;100555.03;5001241;28;20041;-71
2022/11/07 03:17:31;;;;;;;8.65;5.13;;;;;;;8.56;81.55;100565.41;5017617;28;20049;-71
2022/11/07 03:19:58;;;;;;;9.52;5.53;;;;;;;8.26;83.14;100561.56;5026075;28;20052;-71
2022/11/07 03:22:24;;;;;;;7.47;5.20;;;;;;;8.31;83.22;100568.28;5006801;28;20056;-71
2022/11/07 03:24:51;;;;;;;9.10;5.25;;;;;;;8.55;82.69;100563.72;5009860;28;20053;-71
2022/11/07 03:27:18;;;;;;;8.07;4.57;;;;;;;8.42;83.15;100566.97;5025116;28;20075;-71
2022/11/07 03:29:44;;;;;;;9.55;4.88;;;;;;;8.12;84.57;100566.53;5015235;28;20216;-71
2022/11/07 03:32:12;;;;;;;9.50;6.07;;;;;;;8.24;84.63;100568.63;5022229;28;20435;-71
2022/11/07 03:34:39;;;;;;;9.65;4.93;;;;;;;8.30;83.83;100558.78;5008779;28;20536;-71
2022/11/07 03:37:05;;;;;;;8.95;5.03;;;;;;;8.43;84.28;100564.25;4999423;28;20473;-71
2022/11/07 03:39:32;;;;;;;6.57;4.30;;;;;;;8.34;84.26;100572.53;5020914;28;20049;-71
2022/11/07 03:41:58;;;;;;;7.75;4.68;;;;;;;8.46;84.16;100566.72;5017662;28;20052;-71
2022/11/07 03:44:25;;;;;;;7.55;4.78;;;;;;;8.63;83.09;100573.81;5018293;28;20045;-71
2022/11/07 03:46:51;;;;;;;7.82;4.38;;;;;;;8.80;82.73;100574.72;5028559;28;20045;-71
2022/11/07 03:49:19;;;;;;;6.40;3.95;;;;;;;8.83;82.19;100583.34;5027930;28;20052;-71
2022/11/07 03:51:45;;;;;;;10.50;4.65;;;;;;;9.01;81.61;100578.09;5018113;28;20676;-71
2022/11/07 03:54:12;;;;;;;7.38;4.05;;;;;;;9.45;79.04;100578.56;5028651;28;20520;-71
2022/11/07 03:56:38;;;;;;;6.57;4.22;;;;;;;9.45;79.26;100589.03;5028431;28;20077;-71
2022/11/07 03:59:05;;;;;;;7.25;4.40;;;;;;;9.86;77.14;100583.47;5004156;28;20124;-71
2022/11/07 04:01:32;;;;;;;8.27;4.40;;;;;;;10.04;75.63;100593.88;5008917;28;20060;-70
2022/11/07 04:03:58;;;;;;;10.32;4.40;;;;;;;10.27;74.33;100589.22;5008149;28;20049;-70
2022/11/07 04:06:26;;;;;;;6.18;4.10;;;;;;;9.84;76.11;100591.41;4999604;28;20052;-70
2022/11/07 04:08:52;;;;;;;5.60;3.72;;;;;;;9.73;76.85;100599.81;5027845;28;20051;-70
2022/11/07 04:19:27;;;;;;;7.22;3.58;;;;;;;9.02;82.03;100611.16;5027300;28;20064;-70
2022/11/07 04:21:55;;;;;;;5.38;3.33;;;;;;;8.80;83.23;100616.56;5027907;28;20114;-70
2022/11/07 04:24:21;;;;;;;5.40;3.00;;;;;;;8.73;85.05;100616.91;5018613;28;20037;-70
2022/11/07 04:29:32;;;;;;;9.02;4.07;;;;;;;9.26;82.03;100615.25;5016407;28;20409;-70
2022/11/07 04:31:58;;;;;;;6.28;3.53;;;;;;;9.53;81.33;100618.28;5028422;28;20040;-70
2022/11/07 04:34:25;;;;;;;7.00;3.63;;;;;;;9.18;82.96;100611.28;5027099;28;20135;-70
2022/11/07 04:36:51;;;;;;;7.20;4.10;;;;;;;9.11;83.42;100612.50;5017700;28;20056;-70
2022/11/07 04:39:19;;;;;;;6.50;3.40;;;;;;;8.94;85.35;100620.31;5027470;28;20045;-70
2022/11/07 04:41:45;;;;;;;6.85;3.90;;;;;;;9.21;84.17;100621.59;5027358;28;20404;-70
2022/11/07 04:44:12;;;;;;;6.32;3.28;;;;;;;9.32;84.05;100616.69;5017347;28;20686;-70
2022/11/07 04:46:38;;;;;;;6.18;3.08;;;;;;;9.37;83.85;100619.09;5027831;28;20086;-70
2022/11/07 04:49:05;;;;;;;5.70;3.20;;;;;;;9.66;82.71;100608.91;5026476;28;20052;-70
2022/11/07 04:51:31;;;;;;;5.28;3.22;;;;;;;9.57;82.28;100609.34;5026419;28;20114;-70
2022/11/07 04:53:58;;;;;;;6.10;3.33;;;;;;;9.59;83.31;100631.06;5026523;28;20530;-70
2022/11/07 04:56:25;;;;;;;5.82;3.00;;;;;;;9.55;83.00;100619.06;5027960;28;20508;-70
2022/11/07 04:58:52;;;;;;;7.03;3.30;;;;;;;9.32;84.58;100619.31;5025912;28;20048;-70
2022/11/07 05:01:18;;;;;;;8.13;2.85;;;;;;;9.45;84.60;100620.44;5024930;28;20053;-71
2022/11/07 05:03:45;;;;;;;5.60;2.92;;;;;;;9.61;83.59;100615.25;5027248;28;20557;-71
2022/11/07 05:06:14;;;;;;;6.10;3.15;;;;;;;9.39;84.62;100618.09;5027844;28;20045;-71
2022/11/07 05:08:40;;;;;;;6.85;3.20;;;;;;;9.81;82.68;100612.50;5026161;28;20072;-71
2022/11/07 05:11:07;;;;;;;5.38;3.45;;;;;;;9.73;82.70;100615.50;5027019;28;20076;-71
2022/11/07 05:13:35;;;;;;;6.60;3.85;;;;;;;9.53;82.37;100622.69;5028014;28;20045;-71
2022/11/07 05:16:01;;;;;;;6.80;3.67;;;;;;;9.28;83.54;100623.84;5026973;28;20046;-71
2022/11/07 05:18:28;;;;;;;5.80;3.58;;;;;;;9.53;82.15;100623.53;5025578;28;20551;-71
2022/11/07 05:20:54;;;;;;;7.38;4.38;;;;;;;9.74;80.96;100621.59;5027239;28;20052;-71
2022/11/07 05:23:20;;;;;;;8.45;4.45;;;;;;;9.44;82.32;100626.59;5023740;28;20048;-71
2022/11/07 05:25:49;;;;;;;7.97;4.22;;;;;;;9.56;82.09;100625.13;5025741;28;20068;-72
2022/11/07 05:28:19;;;;;;;4.93;3.90;;;;;;;9.50;81.88;100621.03;5027077;28;20622;-72
2022/11/07 05:30:47;;;;;;;7.30;3.80;;;;;;;9.69;80.88;100624.44;5026941;28;20489;-72
2022/11/07 05:33:15;;;;;;;9.52;4.03;;;;;;;9.35;82.30;100623.56;5025924;28;20045;-71
2022/11/07 05:35:43;;;;;;;7.35;3.95;;;;;;;9.16;83.44;100628.84;5016763;28;20456;-72
2022/11/07 05:38:10;;;;;;;5.60;4.10;;;;;;;9.21;83.50;100637.28;5026194;28;20412;-72
2022/11/07 05:40:38;;;;;;;7.18;4.20;;;;;;;9.37;82.40;100629.56;5024258;28;20049;-72
2022/11/07 05:43:06;;;;;;;5.18;3.60;;;;;;;9.15;83.50;100642.84;5017435;28;20049;-71
2022/11/07 05:45:36;;;;;;;5.35;3.83;;;;;;;9.29;82.36;100625.56;5026396;28;20057;-71
2022/11/07 05:48:06;;;;;;;5.97;3.92;;;;;;;9.43;82.12;100640.56;5026760;28;20048;-72
2022/11/07 05:50:33;;;;;;;7.47;3.60;;;;;;;9.27;82.37;100639.63;5015721;28;20049;-72
2022/11/07 05:52:59;;;;;;;5.78;4.00;;;;;;;9.38;82.51;100645.22;5019041;28;20078;-71
2022/11/07 05:55:26;;;;;;;5.97;3.85;;;;;;;9.47;81.41;100644.75;5027220;28;20611;-71
2022/11/07 05:57:54;;;;;;;6.32;3.90;;;;;;;9.68;80.42;100642.88;5016437;28;20497;-71
2022/11/07 06:00:21;;;;;;;5.43;3.70;;;;;;;9.58;81.31;100647.69;5026282;28;20122;-71
2022/11/07 06:02:53;;;;;;;5.35;3.50;;;;;;;9.12;83.25;100651.69;5026945;28;20464;-72
2022/11/07 06:05:21;;;;;;;7.13;3.92;;;;;;;9.19;82.71;100657.47;5020671;28;20433;-71
2022/11/07 06:07:48;;;;;;;6.35;3.75;;;;;;;9.24;83.04;100660.69;5029339;28;20471;-71
2022/11/07 06:10:14;;;;;;;7.15;3.83;;;;;;;9.51;81.65;100654.16;5029518;28;20044;-72
2022/11/07 06:12:41;;;;;;;7.43;3.88;;;;;;;9.61;81.02;100662.38;5020007;28;20041;-72
2022/11/07 06:15:08;;;;;;;6.35;3.63;;;;;;;9.84;78.38;100656.03;5029072;28;20469;-72
2022/11/07 06:17:35;;;;;;;6.18;3.83;;;;;;;10.00;77.92;100665.66;5031476;28;20045;-72
2022/11/07 06:20:01;;;;;;;9.25;3.45;;;;;;;10.03;76.85;100664.66;5020062;28;20489;-72
2022/11/07 06:22:29;;;;;;;11.80;3.90;;;;;;;9.81;77.21;100667.50;5029691;28;20144;-71
2022/11/07 06:24:56;;;;;;;9.55;3.58;;;;;;;9.55;79.17;100675.78;5030462;28;20051;-71
2022/11/07 06:27:23;;;;;;;13.90;4.00;;;;;;;9.40;79.64;100674.75;5020991;28;20065;-72
2022/11/07 06:29:49;;;;;;;10.30;3.85;;;;;;;9.59;78.96;100672.94;5029204;28;20056;-71
2022/11/07 06:32:16;;;;;;;8.48;4.03;;;;;;;9.44;78.69;100670.22;5030129;28;20041;-71
2022/11/07 06:34:42;;;;;;;7.93;3.83;;;;;;;9.25;79.10;100680.72;5019273;28;20047;-71
2022/11/07 06:37:09;;;;;;;5.82;3.60;;;;;;;9.50;79.16;100676.00;5032452;28;20048;-72
2022/11/07 06:39:36;;;;;;;7.63;4.07;;;;;;;9.35;78.56;100675.91;5031547;28;20064;-72
2022/11/07 06:42:03;;;;;;;7.05;3.67;;;;;;;8.61;82.90;100680.22;5017123;28;20053;-71
2022/11/07 06:44:29;;;;;;;10.95;4.70;;;;;;;8.22;85.16;100675.75;5027583;28;20044;-71
2022/11/07 06:46:56;;;;;;;6.85;3.67;;;;;;;8.30;85.47;100675.47;5029350;28;20045;-71
2022/11/07 06:49:22;;;;;;;8.45;3.42;;;;;;;8.25;86.00;100675.63;5017283;28;20059;-71
2022/11/07 06:51:49;;;;;;;7.10;3.67;;;;;;;8.25;86.59;100682.63;5021832;28;20053;-71
2022/11/07 06:54:15;;;;;;;5.47;3.40;;;;;;;7.98;88.90;100682.00;5029794;28;20049;-70
2022/11/07 06:56:43;;;;;;;8.85;3.90;;;;;;;8.01;89.26;100687.13;5019440;28;20041;-70
2022/11/07 06:59:09;;;;;;;5.20;3.65;;;;;;;8.21;88.69;100684.50;5028040;28;20045;-70
2022/11/07 07:01:36;;;;;;;8.27;3.42;;;;;;;8.44;88.17;100688.78;5028271;28;20045;-71
2022/11/07 07:04:04;;;;;;;7.85;3.67;;;;;;;8.41;87.92;100691.53;5019509;28;20052;-70
2022/11/07 07:06:30;;;;;;;7.30;3.40;;;;;;;8.44;88.12;100696.63;5028430;28;20040;-70
2022/11/07 07:08:58;;;;;;;6.25;3.67;;;;;;;8.60;88.05;100696.81;5026688;28;20049;-71
2022/11/07 07:11:24;;;;;;;9.55;3.97;;;;;;;8.86;86.32;100704.34;5019424;28;20041;-70
2022/11/07 07:13:52;;;;;;;8.90;4.32;;;;;;;9.01;85.27;100713.25;5028970;28;20052;-71
2022/11/07 07:16:18;;;;;;;4.82;3.40;;;;;;;8.90;85.98;100705.03;5028434;28;20041;-71
2022/11/07 07:18:45;;;;;;;5.22;3.00;;;;;;;9.31;84.42;100717.06;5018257;28;20459;-71
2022/11/07 07:21:13;;;;;;;5.18;3.28;;;;;;;9.35;84.54;100718.59;5028795;28;20586;-71
2022/11/07 07:23:40;;;;;;;5.75;3.00;;;;;;;9.31;84.29;100717.06;5030099;28;20044;-70
2022/11/07 07:26:09;;;;;;;7.05;3.42;;;;;;;9.03;86.12;100727.94;5018353;28;20045;-70
2022/11/07 07:28:36;;;;;;;7.18;3.22;;;;;;;8.97;86.47;100732.59;5028999;28;20120;-70
2022/11/07 07:31:10;;;;;;;6.60;3.33;;;;;;;9.26;85.77;100734.75;5028623;28;20091;-68
2022/11/07 07:33:37;;;;;;;5.75;3.00;;;;;;;9.13;86.05;100728.34;5013570;28;20056;-67
2022/11/07 07:36:04;;;;;;;7.07;3.40;;;;;;;9.29;85.24;100734.59;5024466;28;20067;-68
2022/11/07 07:38:30;;;;;;;8.57;3.42;;;;;;;9.18;85.87;100729.88;5023113;28;20111;-68
2022/11/07 07:40:58;;;;;;;4.40;3.00;;;;;;;9.42;84.97;100735.75;5028265;28;20117;-68
2022/11/07 07:43:25;;;;;;;3.67;2.60;;;;;;;9.26;86.09;100729.50;5027528;28;20102;-68
2022/11/07 07:45:52;;;;;;;4.85;2.63;;;;;;;9.55;84.83;100736.00;5021573;28;20049;-68
2022/11/07 07:48:20;;;;;;;6.30;2.50;;;;;;;9.85;83.43;100731.91;5028295;28;20058;-68
2022/11/07 07:50:47;;;;;;;4.32;2.78;;;;;;;10.16;82.27;100731.28;5027850;28;20048;-69
2022/11/07 07:53:14;;;;;;;4.72;2.97;;;;;;;9.93;82.85;100737.63;5018662;28;20043;-69
2022/11/07 07:55:40;;;;;;;5.97;3.25;;;;;;;10.41;81.37;100730.88;5028043;28;20060;-69
2022/11/07 07:58:07;;;;;;;6.60;3.10;;;;;;;11.07;79.06;100723.88;5027183;28;20059;-68
2022/11/07 08:00:33;;;;;;;5.53;3.08;;;;;;;11.14;78.25;100726.09;5007667;28;20041;-70
2022/11/07 08:03:00;;;;;;;3.90;2.92;;;;;;;11.67;76.49;100722.28;5027999;28;20049;-69
2022/11/07 08:05:28;;;;;;;4.75;2.65;;;;;;;11.71;76.52;100722.03;5027863;28;20052;-70
2022/11/07 08:07:55;;;;;;;4.25;2.45;;;;;;;12.28;76.41;100722.25;5021662;28;20044;-70
2022/11/07 08:10:21;;;;;;;6.70;3.28;;;;;;;12.58;74.19;100723.06;5027792;28;20048;-69
2022/11/07 08:12:49;;;;;;;3.78;2.53;;;;;;;12.88;72.80;100722.13;5027396;28;20056;-69
2022/11/07 08:15:17;;;;;;;4.68;2.55;;;;;;;13.23;72.07;100725.25;5020721;28;20071;-69
2022/11/07 08:17:44;;;;;;;5.63;2.80;;;;;;;12.85;72.83;100727.59;5028074;28;20048;-70
2022/11/07 08:20:12;;;;;;;3.78;2.25;;;;;;;12.43;74.44;100716.06;5027605;28;20107;-69
2022/11/07 08:22:41;;;;;;;4.22;2.17;;;;;;;12.05;75.90;100722.72;5013112;28;20045;-70
2022/11/07 08:25:10;;;;;;;3.97;2.63;;;;;;;12.88;74.66;100719.50;5028583;28;20052;-69
2022/11/07 08:27:37;;;;;;;4.85;2.30;;;;;;;12.83;74.52;100713.66;5007649;28;20049;-70
2022/11/07 08:30:04;;;;;;;4.60;2.60;;;;;;;13.15;73.88;100725.72;5003095;28;20448;-70
2022/11/07 08:32:31;;;;;;;4.10;2.60;;;;;;;13.21;73.41;100730.59;5026382;28;20045;-70
2022/11/07 08:34:57;;;;;;;3.65;2.08;;;;;;;13.21;72.83;100727.97;5028590;28;20060;-70
2022/11/07 08:37:24;;;;;;;6.80;2.20;;;;;;;13.52;72.60;100727.72;5017489;28;20045;-70
2022/11/07 08:39:52;;;;;;;3.92;1.70;;;;;;;13.28;72.29;100721.38;5026868;28;20053;-70
2022/11/07 08:42:19;;;;;;;4.65;2.10;;;;;;;14.37;69.46;100719.47;5026903;28;20040;-71
2022/11/07 08:44:45;;;;;;;2.95;1.70;;;;;;;14.77;67.38;100714.94;5016683;28;20048;-70
2022/11/07 08:47:11;;;;;;;4.82;2.40;;;;;;;14.73;67.21;100716.09;5027825;28;20118;-70
2022/11/07 08:49:38;;;;;;;3.22;2.10;;;;;;;14.75;67.47;100719.47;5026453;28;20051;-70
2022/11/07 08:52:04;;;;;;;2.45;1.90;;;;;;;15.15;66.64;100722.81;5017447;28;20049;-71
2022/11/07 08:54:31;;;;;;;5.22;2.30;;;;;;;15.10;66.78;100731.06;5027612;28;20067;-71
2022/11/07 08:56:59;;;;;;;7.50;2.30;;;;;;;15.19;65.65;100720.81;5026277;28;20045;-70
2022/11/07 08:59:25;;;;;;;4.45;1.83;;;;;;;15.37;66.33;100736.16;5017418;28;20072;-70
2022/11/07 09:01:52;;;;;;;5.25;1.80;;;;;;;15.51;64.87;100724.66;5028207;28;20417;-70
2022/11/07 09:04:18;;;;;;;4.78;2.03;;;;;;;15.53;64.83;100717.47;5043423;28;20492;-70
2022/11/07 09:06:44;;;;;;;3.40;1.80;;;;;;;15.38;65.62;100727.31;5043636;28;20041;-70
2022/11/07 09:09:11;;;;;;;4.82;1.83;;;;;;;14.63;68.04;100730.03;5044489;28;20049;-70
2022/11/07 09:11:37;;;;;;;4.47;1.95;;;;;;;14.67;68.16;100727.06;5043527;28;20412;-70
2022/11/07 09:14:05;;;;;;;4.82;2.00;;;;;;;14.82;67.84;100735.75;5044857;28;20052;-70
2022/11/07 09:16:32;;;;;;;6.78;2.08;;;;;;;15.42;66.11;100738.50;5044762;28;20056;-70
2022/11/07 09:18:58;;;;;;;5.20;1.85;;;;;;;15.39;65.66;100731.63;5043173;28;20052;-70
2022/11/07 09:21:24;;;;;;;4.25;1.73;;;;;;;15.38;66.31;100740.50;5045045;28;20045;-70
2022/11/07 09:23:51;;;;;;;4.88;2.03;;;;;;;15.45;66.10;100736.47;5043562;28;20412;-70
2022/11/07 09:26:18;;;;;;;5.70;2.35;;;;;;;15.25;66.56;100733.56;5043023;28;20560;-70
2022/11/07 09:28:44;;;;;;;4.57;2.40;;;;;;;15.88;64.73;100726.31;5043469;28;20049;-71
2022/11/07 09:31:12;;;;;;;4.97;1.98;;;;;;;16.01;63.55;100736.81;5044354;28;20053;-71
2022/11/07 09:33:38;;;;;;;3.05;1.60;;;;;;;15.47;66.21;100726.66;5044253;28;20045;-71
2022/11/07 09:36:06;;;;;;;6.30;2.28;;;;;;;15.22;66.72;100729.38;5046033;28;20041;-70
2022/11/07 09:38:32;;;;;;;11.73;3.00;;;;;;;15.03;68.13;100735.09;5044806;28;20059;-71
2022/11/07 09:41:04;;;;;;;5.47;2.28;;;;;;;15.03;66.88;100727.19;5047772;28;20087;-71
2022/11/07 09:43:44;;;;;;;5.15;2.00;;;;;;;14.90;68.53;100731.63;5047240;28;20063;-70
2022/11/07 09:46:22;;;;;;;4.45;2.17;;;;;;;15.29;67.53;100743.81;5048197;28;20048;-71
2022/11/07 09:48:53;;;;;;;5.80;2.15;;;;;;;15.49;66.43;100737.97;5045498;28;20045;-71
2022/11/07 09:51:27;;;;;;;3.60;1.63;;;;;;;15.75;65.06;100729.94;5040996;28;20049;-70
2022/11/07 09:53:59;;;;;;;6.75;2.22;;;;;;;16.07;64.40;100739.84;5040802;28;20076;-71
2022/11/07 09:56:27;;;;;;;4.20;1.90;;;;;;;16.02;64.39;100741.16;5047458;28;20044;-71
2022/11/07 09:58:57;;;;;;;3.67;1.58;;;;;;;16.24;63.80;100735.94;5047140;28;20106;-71
2022/11/07 10:01:30;;;;;;;4.72;2.13;;;;;;;16.38;63.97;100743.69;5047716;28;20044;-71
2022/11/07 10:03:58;;;;;;;3.30;1.50;;;;;;;16.51;62.00;100744.44;5048842;28;20049;-71
2022/11/07 10:06:26;;;;;;;5.40;2.00;;;;;;;15.91;63.63;100743.75;5030745;28;20098;-71
2022/11/07 10:09:05;;;;;;;7.22;1.95;;;;;;;15.85;64.77;100746.84;5020002;28;20448;-71
2022/11/07 10:11:35;;;;;;;3.80;2.20;;;;;;;15.78;65.40;100753.53;5030289;28;20061;-71
2022/11/07 10:14:22;;;;;;;4.95;2.30;;;;;;;15.39;65.63;100746.66;5020929;28;20045;-70
2022/11/07 10:17:03;;;;;;;6.13;2.17;;;;;;;15.15;66.76;100749.22;5030158;28;20056;-70
2022/11/07 10:19:46;;;;;;;4.05;1.85;;;;;;;15.15;66.49;100746.56;5027048;28;20478;-70
2022/11/07 10:22:20;;;;;;;;;;;;;;;15.18;67.96;100742.88;5031977;28;20064;-71
2022/11/07 10:25:04;;;;;;;2.70;1.80;;;;;;;15.29;68.05;100764.09;5018749;28;20040;-72
2022/11/07 10:27:31;;;;;;;8.50;2.53;;;;;;;15.20;68.63;100749.75;5022241;28;20107;-71
2022/11/07 10:29:59;;;;;;;4.75;1.92;;;;;;;15.60;66.64;100747.78;5020390;28;20420;-72
2022/11/07 10:32:34;;;;;;;4.40;1.85;;;;;;;15.79;66.11;100742.00;5028714;28;20045;-72
2022/11/07 10:35:14;;;;;;;6.32;2.85;;;;;;;15.51;66.48;100749.28;5018713;28;20053;-71
2022/11/07 10:37:41;;;;;;;6.55;2.38;;;;;;;15.35;67.74;100750.44;5029184;28;20065;-73
2022/11/07 10:40:14;;;;;;;5.10;1.80;;;;;;;15.01;68.57;100741.41;5029910;28;20045;-71
2022/11/07 10:42:44;;;;;;;5.45;2.35;;;;;;;14.98;69.63;100741.63;5030633;28;20048;-71
2022/11/07 10:45:13;;;;;;;4.05;1.70;;;;;;;14.54;69.50;100748.19;5028746;28;20072;-71
2022/11/07 10:47:41;;;;;;;8.85;2.13;;;;;;;14.48;70.75;100738.06;5018348;28;20044;-71
2022/11/07 10:50:18;;;;;;;5.35;1.90;;;;;;;14.13;72.17;100752.72;5025468;28;20128;-71
2022/11/07 10:52:52;;;;;;;4.10;1.67;;;;;;;13.93;72.41;100748.75;5027997;28;20052;-70
2022/11/07 10:55:19;;;;;;;5.20;1.98;;;;;;;13.81;73.47;100740.81;5029791;28;20045;-70
2022/11/07 10:57:50;;;;;;;6.35;1.67;;;;;;;13.82;73.69;100740.69;5029496;28;20056;-70
2022/11/07 11:00:25;;;;;;;5.30;2.05;;;;;;;13.84;73.63;100743.25;5019751;28;20045;-70
2022/11/07 11:02:55;;;;;;;4.75;2.13;;;;;;;14.06;73.37;100738.25;5028970;28;20056;-71
2022/11/07 11:05:25;;;;;;;5.63;2.10;;;;;;;13.95;73.42;100744.22;5029645;28;20056;-70
2022/11/07 11:07:54;;;;;;;7.78;2.03;;;;;;;14.14;73.08;100742.09;5029253;28;20045;-70
2022/11/07 11:10:23;;;;;;;5.05;1.83;;;;;;;14.23;72.97;100732.69;5028255;28;20107;-70
2022/11/07 11:12:50;;;;;;;7.40;2.20;;;;;;;14.36;73.13;100735.41;5019760;28;20048;-71
2022/11/07 11:15:19;;;;;;;6.72;2.65;;;;;;;14.36;72.55;100736.25;5029814;28;20049;-70
2022/11/07 11:17:47;;;;;;;4.53;2.05;;;;;;;14.71;71.42;100743.56;5029229;28;20060;-70
2022/11/07 11:20:29;;;;;;;7.13;3.30;;;;;;;14.65;70.66;100739.53;5019354;28;20045;-69
2022/11/07 11:22:56;;;;;;;7.18;2.42;;;;;;;14.66;70.79;100737.75;5027983;28;20279;-70
2022/11/07 11:25:23;;;;;;;7.30;1.88;;;;;;;14.72;69.92;100745.22;5018535;28;20045;-70
2022/11/07 11:27:54;;;;;;;3.70;2.03;;;;;;;14.84;70.32;100734.69;5026070;28;20123;-70
2022/11/07 11:30:22;;;;;;;6.60;1.92;;;;;;;14.84;69.60;100745.25;5028748;28;20105;-70
2022/11/07 11:32:52;;;;;;;6.55;2.10;;;;;;;14.99;69.65;100746.81;5019305;28;20063;-70
2022/11/07 11:35:32;;;;;;;4.70;2.05;;;;;;;14.47;70.63;100739.00;5028187;28;20045;-70
2022/11/07 11:38:04;;;;;;;5.82;1.70;;;;;;;14.71;70.86;100739.09;5018781;28;20048;-70
2022/11/07 11:40:37;;;;;;;7.93;2.30;;;;;;;14.66;70.94;100738.59;5027762;28;20095;-70
2022/11/07 11:43:16;;;;;;;4.03;1.75;;;;;;;14.61;71.00;100741.53;5023166;28;20041;-70
2022/11/07 11:45:53;;;;;;;5.93;2.00;;;;;;;14.63;71.49;100734.34;5028042;28;20049;-70
2022/11/07 11:48:24;;;;;;;4.82;1.88;;;;;;;14.62;70.99;100737.13;5028867;28;20045;-69
2022/11/07 11:50:58;;;;;;;4.55;1.92;;;;;;;14.56;71.07;100735.72;5020667;28;20053;-69